»·PEaware :: SWA145 KLAS-KPDX

SWA145 :: KLAS-KPDX

FLIGHT INFORMATION

Flight Status: Arrived
Operator:
Southwest Airlines
More flights by this operator :: More flights under this callsign
Pilot: Mitchell L. (19304)
Aircraft: BOEING 737-900
(B739)
More flights by this aircraft type
Origin: KLAS McCarran Intl
United States
Destination: KPDX Portland Intl
United States
More flights between these airports :: More routes between these airports
Route: + / BLD258045 KENNO OAL J92 YERIN SOERN TMBRS2
File this flight plan on PilotEdge
Remarks:
Altitude:
(Current/Filed)
34,000ft
Speed:
(Current/Filed)
475kts
Departed: 09-Jul-18 06:31 PM
Arrived: 09-Jul-18 08:17 PM
Distance/Time
Traveled:
662nm/1:46
Distance/Time
To Go:
Arrived

Flight Plot

Page will automatically refresh every two minutes.

Flight plan parsing failed; only flown route is shown


Map Options




Map Legend


Flown Route
Filed Route
Departure Airport
Arrival Airport
Navaid (VOR, NDB)
Fix

Horizontal Profiles

Position Reports

Time Latitude Longitude Heading Altitude Ground
Speed
09-Jul-18 17:56 36.079886 -115.147045 60 2189ft 0kts
09-Jul-18 17:57 36.079886 -115.147045 60 2189ft 0kts
09-Jul-18 17:58 36.079886 -115.147045 60 2189ft 0kts
09-Jul-18 17:59 36.079886 -115.147045 60 2189ft 0kts
09-Jul-18 18:00 36.079886 -115.147045 60 2189ft 0kts
09-Jul-18 18:01 36.079886 -115.147045 60 2189ft 0kts
09-Jul-18 18:02 36.079886 -115.147045 60 2189ft 0kts
09-Jul-18 18:03 36.079886 -115.147045 60 2189ft 0kts
09-Jul-18 18:04 36.079886 -115.147045 60 2189ft 0kts
09-Jul-18 18:05 36.079886 -115.147045 60 2189ft 0kts
09-Jul-18 18:06 36.079886 -115.147045 60 2189ft 0kts
09-Jul-18 18:07 36.079886 -115.147045 60 2189ft 0kts
09-Jul-18 18:08 36.079886 -115.147045 60 2189ft 0kts
09-Jul-18 18:09 36.079886 -115.147045 60 2189ft 0kts
09-Jul-18 18:10 36.079886 -115.147045 60 2189ft 0kts
09-Jul-18 18:11 36.079886 -115.147045 60 2189ft 0kts
09-Jul-18 18:12 36.079886 -115.147045 60 2189ft 0kts
09-Jul-18 18:13 36.079886 -115.147045 60 2189ft 0kts
09-Jul-18 18:14 36.079886 -115.147045 60 2189ft 0kts
09-Jul-18 18:15 36.079886 -115.147045 60 2189ft 0kts
09-Jul-18 18:16 36.079886 -115.147045 60 2189ft 0kts
09-Jul-18 18:17 36.079886 -115.147045 60 2189ft 0kts
09-Jul-18 18:18 36.079886 -115.147045 60 2189ft 0kts
09-Jul-18 18:19 36.079886 -115.147045 60 2189ft 0kts
09-Jul-18 18:20 36.079886 -115.147045 60 2189ft 0kts
09-Jul-18 18:21 36.079650 -115.147587 62 2189ft 2kts
09-Jul-18 18:22 36.079480 -115.147987 62 2189ft 0kts
09-Jul-18 18:23 36.079480 -115.147987 62 2189ft 0kts
09-Jul-18 18:24 36.079480 -115.147987 62 2189ft 0kts
09-Jul-18 18:25 36.079523 -115.147883 63 2189ft 3kts
09-Jul-18 18:26 36.078365 -115.149269 319 2189ft 17kts
09-Jul-18 18:27 36.081273 -115.154718 336 2189ft 28kts
09-Jul-18 18:28 36.089679 -115.156320 22 2189ft 28kts
09-Jul-18 18:29 36.097172 -115.152119 23 2189ft 16kts
09-Jul-18 18:30 36.097989 -115.152437 299 2189ft 0kts
09-Jul-18 18:31 36.098201 -115.153072 284 2189ft 6kts
09-Jul-18 18:32 36.087815 -115.159571 203 2189ft 149kts
09-Jul-18 18:33 36.036901 -115.187897 207 3560ft 242kts
09-Jul-18 18:34 35.989926 -115.254363 241 5621ft 294kts
09-Jul-18 18:35 35.946173 -115.330702 224 8449ft 275kts
09-Jul-18 18:36 35.894413 -115.397560 241 11312ft 316kts
09-Jul-18 18:37 35.885851 -115.504966 271 14246ft 365kts
09-Jul-18 18:38 35.888785 -115.627993 271 17171ft 374kts
09-Jul-18 18:39 35.890869 -115.730008 270 19525ft 398kts
09-Jul-18 18:40 35.923502 -115.854094 313 22427ft 415kts
09-Jul-18 18:41 36.011959 -115.947943 319 24960ft 428kts
09-Jul-18 18:42 36.101102 -116.040400 319 27200ft 438kts
09-Jul-18 18:43 36.193836 -116.136882 320 29168ft 450kts
09-Jul-18 18:44 36.289899 -116.237155 320 30951ft 462kts
09-Jul-18 18:45 36.388715 -116.340651 320 32637ft 472kts
09-Jul-18 18:46 36.489431 -116.446481 320 33850ft 480kts
09-Jul-18 18:47 36.585478 -116.547770 320 34036ft 483kts
09-Jul-18 18:48 36.684099 -116.652129 319 34036ft 478kts
09-Jul-18 18:49 36.774863 -116.748496 319 34036ft 477kts
09-Jul-18 18:50 36.875610 -116.855830 319 34089ft 476kts
09-Jul-18 18:51 36.974231 -116.961265 319 34200ft 467kts
09-Jul-18 18:52 37.073422 -117.067597 317 34203ft 472kts
09-Jul-18 18:53 37.169412 -117.170970 316 34198ft 475kts
09-Jul-18 18:54 37.266178 -117.275592 316 34202ft 476kts
09-Jul-18 18:55 37.379078 -117.363739 331 34200ft 487kts
09-Jul-18 18:56 37.498290 -117.440856 331 34180ft 487kts
09-Jul-18 18:57 37.636714 -117.530824 331 34202ft 487kts
09-Jul-18 18:58 37.735801 -117.595497 331 34202ft 487kts
09-Jul-18 18:59 37.844329 -117.666557 330 34179ft 477kts
09-Jul-18 19:00 37.957722 -117.741029 330 34162ft 477kts
09-Jul-18 19:01 38.061249 -117.840464 313 34191ft 471kts
09-Jul-18 19:02 38.150197 -117.947573 313 34160ft 471kts
09-Jul-18 19:03 38.244723 -118.062657 313 34113ft 472kts
09-Jul-18 19:04 38.338540 -118.177395 313 34230ft 469kts
09-Jul-18 19:05 38.432812 -118.292782 313 34322ft 479kts
09-Jul-18 19:06 38.528774 -118.410139 313 34182ft 487kts
09-Jul-18 19:07 38.625826 -118.528702 314 34101ft 490kts
09-Jul-18 19:08 38.723221 -118.647582 314 34101ft 489kts
09-Jul-18 19:09 38.804351 -118.746497 313 34102ft 487kts
09-Jul-18 19:10 38.900350 -118.863436 313 34104ft 484kts
09-Jul-18 19:11 39.000266 -118.973044 326 34122ft 488kts
09-Jul-18 19:12 39.111755 -119.049040 327 34100ft 483kts
09-Jul-18 19:13 39.229517 -119.128503 327 34136ft 476kts
09-Jul-18 19:14 39.345761 -119.207227 327 34180ft 471kts
09-Jul-18 19:15 39.461813 -119.286070 327 34200ft 473kts
09-Jul-18 19:16 39.569862 -119.359684 327 34182ft 476kts
09-Jul-18 19:17 39.686700 -119.439508 327 34182ft 478kts
09-Jul-18 19:18 39.803546 -119.519606 327 34230ft 479kts
09-Jul-18 19:19 39.921175 -119.600555 327 34257ft 480kts
09-Jul-18 19:20 40.031200 -119.676563 327 34263ft 482kts
09-Jul-18 19:21 40.139279 -119.751486 327 34254ft 484kts
09-Jul-18 19:22 40.256755 -119.833280 327 34246ft 484kts
09-Jul-18 19:23 40.374772 -119.915832 327 34211ft 486kts
09-Jul-18 19:24 40.492836 -119.998789 327 34192ft 486kts
09-Jul-18 19:25 40.610933 -120.082143 327 34192ft 486kts
09-Jul-18 19:26 40.728945 -120.165810 327 34193ft 487kts
09-Jul-18 19:27 40.847304 -120.250099 327 34192ft 487kts
09-Jul-18 19:28 40.966141 -120.335105 327 34186ft 488kts
09-Jul-18 19:29 41.076415 -120.414245 325 34186ft 489kts
09-Jul-18 19:30 41.193428 -120.498627 324 34175ft 489kts
09-Jul-18 19:31 41.311760 -120.584383 324 34176ft 488kts
09-Jul-18 19:32 41.417356 -120.661221 324 34183ft 488kts
09-Jul-18 19:33 41.535813 -120.747702 324 34185ft 489kts
09-Jul-18 19:34 41.654358 -120.834623 324 34186ft 490kts
09-Jul-18 19:35 41.772751 -120.921812 324 34187ft 491kts
09-Jul-18 19:36 41.891366 -121.009533 323 34186ft 492kts
09-Jul-18 19:37 42.010712 -121.098162 323 34185ft 490kts
09-Jul-18 19:38 42.122744 -121.181707 323 34168ft 489kts
09-Jul-18 19:39 42.240811 -121.270118 323 34168ft 486kts
09-Jul-18 19:40 42.358103 -121.358339 323 34167ft 484kts
09-Jul-18 19:41 42.475183 -121.446780 323 34168ft 483kts
09-Jul-18 19:42 42.591702 -121.535182 323 34170ft 482kts
09-Jul-18 19:43 42.708242 -121.623972 323 34169ft 481kts
09-Jul-18 19:44 42.818608 -121.708369 322 34180ft 481kts
09-Jul-18 19:45 42.935420 -121.798012 322 34180ft 482kts
09-Jul-18 19:46 43.045199 -121.882605 321 34182ft 485kts
09-Jul-18 19:47 43.132468 -121.950220 321 34161ft 486kts
09-Jul-18 19:48 43.267573 -122.055332 321 34139ft 487kts
09-Jul-18 19:49 43.364031 -122.130704 321 34169ft 486kts
09-Jul-18 19:50 43.479763 -122.221613 321 33685ft 498kts
09-Jul-18 19:51 43.597574 -122.314279 321 32098ft 495kts
09-Jul-18 19:52 43.711065 -122.403635 322 30435ft 477kts
09-Jul-18 19:53 43.819847 -122.489697 322 28794ft 462kts
09-Jul-18 19:54 43.925417 -122.573617 322 27192ft 450kts
09-Jul-18 19:55 44.024321 -122.652578 322 25729ft 440kts
09-Jul-18 19:56 44.123866 -122.730778 330 24247ft 438kts
09-Jul-18 19:57 44.223214 -122.743755 359 22804ft 448kts
09-Jul-18 19:58 44.340701 -122.732858 0 20947ft 428kts
09-Jul-18 19:59 44.453746 -122.721927 0 19082ft 408kts
09-Jul-18 20:00 44.561897 -122.711344 1 17398ft 388kts
09-Jul-18 20:01 44.666393 -122.701005 1 15720ft 374kts
09-Jul-18 20:02 44.766503 -122.691027 1 14063ft 361kts
09-Jul-18 20:03 44.856505 -122.681907 359 12658ft 345kts
09-Jul-18 20:04 44.947339 -122.672782 359 11381ft 328kts
09-Jul-18 20:05 45.034351 -122.664002 359 10163ft 311kts
09-Jul-18 20:06 45.108067 -122.656440 359 8992ft 274kts
09-Jul-18 20:07 45.176022 -122.649474 359 7981ft 244kts
09-Jul-18 20:08 45.237641 -122.643263 359 7156ft 234kts
09-Jul-18 20:09 45.293219 -122.604086 29 6440ft 236kts
09-Jul-18 20:10 45.345417 -122.557219 30 5768ft 243kts
09-Jul-18 20:11 45.399797 -122.508328 31 5009ft 241kts
09-Jul-18 20:12 45.446067 -122.448345 44 3573ft 224kts
09-Jul-18 20:13 45.482066 -122.399100 28 2981ft 179kts
09-Jul-18 20:14 45.517571 -122.421554 295 2614ft 190kts
09-Jul-18 20:15 45.539882 -122.480255 296 1688ft 163kts
09-Jul-18 20:16 45.558904 -122.528724 296 924ft 143kts
09-Jul-18 20:17 45.575362 -122.570889 296 285ft 133kts
09-Jul-18 20:18 45.587799 -122.601993 332 37ft 20kts
09-Jul-18 20:19 45.588578 -122.602289 344 37ft 0kts
09-Jul-18 20:20 45.588763 -122.599721 120 37ft 18kts
09-Jul-18 20:21 45.587113 -122.595526 119 37ft 6kts
09-Jul-18 20:22 45.587793 -122.594872 9 37ft 1kts
09-Jul-18 20:23 45.587800 -122.594870 8 37ft 0kts
09-Jul-18 20:24 45.587800 -122.594870 8 37ft 0kts
09-Jul-18 20:25 45.587800 -122.594870 8 37ft 0kts
09-Jul-18 20:26 45.587800 -122.594870 8 37ft 0kts

Navigation Log

Ident Type
Flight plan parsing failed, navigation log unavailable